createdAt,value
2022-10-18T00:02:48.905Z,42.25
2022-10-18T00:05:50.883Z,39.90
2022-10-18T00:08:52.894Z,47.23
2022-10-18T00:11:55.176Z,41.50
2022-10-18T00:14:57.122Z,45.17
2022-10-18T00:17:59.085Z,40.85
2022-10-18T00:21:02.136Z,41.97
2022-10-18T00:24:04.316Z,44.83
2022-10-18T00:27:06.220Z,41.22
2022-10-18T00:30:08.383Z,42.23
2022-10-18T00:33:10.308Z,42.33
2022-10-18T00:36:13.015Z,42.35
2022-10-18T00:39:16.731Z,45.73
2022-10-18T00:42:19.403Z,45.05
2022-10-18T00:45:22.624Z,44.30
2022-10-18T00:48:24.683Z,42.90
2022-10-18T00:51:32.647Z,42.40
2022-10-18T00:54:35.915Z,44.42
2022-10-18T00:57:39.077Z,45.55
2022-10-18T01:00:41.743Z,48.33
2022-10-18T01:03:43.734Z,46.40
2022-10-18T01:10:13.334Z,42.43
2022-10-18T01:13:15.244Z,43.10
2022-10-18T01:16:22.006Z,41.08
2022-10-18T01:19:23.922Z,48.28
2022-10-18T01:22:35.181Z,45.08
2022-10-18T01:25:52.173Z,43.42
2022-10-18T01:29:06.082Z,45.67
2022-10-18T01:32:11.828Z,42.23
2022-10-18T01:35:22.227Z,47.80
2022-10-18T01:38:25.274Z,45.47
2022-10-18T01:41:27.707Z,44.17
2022-10-18T01:44:31.755Z,49.88
2022-10-18T01:47:34.354Z,49.72
2022-10-18T01:50:36.532Z,48.08
2022-10-18T01:53:38.453Z,47.55
2022-10-18T01:56:47.779Z,47.30
2022-10-18T01:59:55.183Z,46.28
2022-10-18T02:03:09.231Z,46.67
2022-10-18T02:06:13.936Z,44.72
2022-10-18T02:09:21.217Z,46.25
2022-10-18T02:12:23.577Z,45.43
2022-10-18T02:15:31.044Z,51.78
2022-10-18T02:18:41.524Z,43.25
2022-10-18T02:21:44.460Z,47.15
2022-10-18T02:24:48.332Z,52.78
2022-10-18T02:27:50.563Z,50.25
2022-10-18T02:31:10.538Z,47.50
2022-10-18T02:34:19.986Z,45.20
2022-10-18T02:37:21.991Z,48.28
2022-10-18T02:40:24.606Z,48.70
2022-10-18T02:43:26.752Z,49.40
2022-10-18T02:46:28.782Z,50.40
2022-10-18T02:49:30.846Z,49.08
2022-10-18T02:52:32.803Z,50.45
2022-10-18T02:55:34.790Z,53.47
2022-10-18T02:58:36.774Z,48.83
2022-10-18T03:01:38.761Z,53.80
2022-10-18T03:04:40.724Z,57.33
2022-10-18T03:07:42.696Z,50.60
2022-10-18T03:10:45.208Z,50.70
2022-10-18T03:13:47.159Z,54.60
2022-10-18T03:16:49.302Z,49.20
2022-10-18T03:19:51.309Z,49.42
2022-10-18T03:22:53.257Z,46.47
2022-10-18T03:25:55.236Z,51.00
2022-10-18T03:28:57.220Z,54.00
2022-10-18T03:31:59.204Z,53.53
2022-10-18T03:35:01.133Z,56.60
2022-10-18T03:38:03.125Z,52.97
2022-10-18T03:41:05.278Z,53.58
2022-10-18T03:44:07.273Z,55.40
2022-10-18T03:47:09.205Z,53.58
2022-10-18T03:50:11.210Z,51.83
2022-10-18T03:53:13.172Z,55.88
2022-10-18T03:56:15.182Z,56.95
2022-10-18T03:59:17.808Z,51.67
2022-10-18T04:02:19.746Z,56.33
2022-10-18T04:05:24.075Z,55.57
2022-10-18T04:08:26.297Z,56.42
2022-10-18T04:11:28.435Z,52.47
2022-10-18T04:14:30.387Z,57.50
2022-10-18T04:17:32.614Z,58.38
2022-10-18T04:20:34.889Z,62.85
2022-10-18T04:23:38.757Z,54.65
2022-10-18T04:26:40.958Z,52.80
2022-10-18T04:29:42.983Z,55.35
2022-10-18T04:32:44.897Z,58.92
2022-10-18T04:35:47.088Z,61.27
2022-10-18T04:38:49.019Z,58.90
2022-10-18T04:41:50.954Z,62.40
2022-10-18T04:44:52.927Z,58.80
2022-10-18T04:47:54.995Z,60.95
2022-10-18T04:50:56.996Z,60.08
2022-10-18T04:53:58.933Z,63.05
2022-10-18T04:57:00.925Z,65.47
2022-10-18T05:00:03.849Z,56.97
2022-10-18T05:03:05.945Z,59.17
2022-10-18T05:06:08.215Z,58.57
2022-10-18T05:09:10.189Z,64.88
2022-10-18T05:12:12.153Z,63.20
2022-10-18T05:15:14.106Z,61.53
2022-10-18T05:18:16.042Z,60.80
2022-10-18T05:21:17.968Z,58.55
2022-10-18T05:24:21.918Z,63.25
2022-10-18T05:27:26.139Z,60.67
2022-10-18T05:30:28.115Z,59.20
2022-10-18T05:33:30.052Z,62.65
2022-10-18T05:36:32.024Z,67.40
2022-10-18T05:39:34.097Z,67.10
2022-10-18T05:42:36.112Z,61.72
2022-10-18T05:45:38.128Z,60.47
2022-10-18T05:48:40.142Z,66.78
2022-10-18T05:51:42.164Z,62.17
2022-10-18T05:54:44.204Z,61.67
2022-10-18T05:57:49.294Z,56.65
2022-10-18T06:00:51.964Z,66.68
2022-10-18T06:03:54.074Z,51.00
2022-10-18T06:06:56.224Z,51.40
2022-10-18T06:09:58.209Z,56.08
2022-10-18T06:13:00.178Z,55.40
2022-10-18T06:16:02.142Z,52.63
2022-10-18T06:19:04.106Z,50.55
2022-10-18T06:22:06.136Z,45.20
2022-10-18T06:25:08.261Z,46.45
2022-10-18T06:28:11.630Z,44.40
2022-10-18T06:31:14.683Z,45.58
2022-10-18T06:34:16.660Z,52.38
2022-10-18T06:37:18.643Z,45.23
2022-10-18T06:45:01.000Z,45.80
2022-10-18T06:48:02.941Z,45.00
2022-10-18T06:51:05.985Z,45.80
2022-10-18T06:54:17.345Z,43.95
2022-10-18T06:57:20.360Z,48.35
2022-10-18T07:00:22.338Z,39.97
2022-10-18T07:03:24.323Z,43.22
2022-10-18T07:06:26.356Z,33.28
2022-10-18T07:09:28.405Z,33.07
2022-10-18T07:12:30.996Z,27.27
2022-10-18T07:18:42.284Z,25.67
2022-10-18T07:21:44.235Z,29.95
2022-10-18T07:24:46.236Z,27.57
2022-10-18T07:27:48.288Z,28.63
2022-10-18T07:30:50.275Z,26.10
2022-10-18T07:33:52.553Z,31.02
2022-10-18T07:36:54.547Z,31.48
2022-10-18T07:39:56.661Z,25.97
2022-10-18T07:43:00.646Z,28.88
2022-10-18T07:46:06.103Z,27.80
2022-10-18T07:49:08.060Z,23.15
2022-10-18T07:52:10.064Z,22.10
2022-10-18T07:55:12.011Z,26.53
2022-10-18T07:58:13.976Z,21.33
2022-10-18T08:01:15.995Z,18.80
2022-10-18T08:04:18.022Z,22.75
2022-10-18T08:07:20.071Z,24.08
2022-10-18T08:10:22.346Z,24.03
2022-10-18T08:13:24.306Z,27.02
2022-10-18T08:19:37.516Z,21.13
2022-10-18T08:22:39.448Z,24.67
2022-10-18T08:25:41.411Z,20.53
2022-10-18T08:28:53.489Z,21.70
2022-10-18T08:32:00.507Z,28.95
2022-10-18T08:35:04.502Z,23.90
2022-10-18T08:38:16.387Z,19.92
2022-10-18T08:41:46.426Z,17.97
2022-10-18T08:44:49.648Z,19.50
2022-10-18T08:47:53.764Z,18.63
2022-10-18T08:50:56.283Z,17.80
2022-10-18T08:54:06.713Z,14.52
2022-10-18T08:57:13.034Z,15.97
2022-10-18T09:00:19.032Z,12.00
2022-10-18T09:03:39.947Z,17.13
2022-10-18T09:06:57.664Z,12.75
2022-10-18T09:10:18.277Z,12.10
2022-10-18T09:13:35.381Z,10.50
2022-10-18T09:16:40.660Z,13.90
2022-10-18T09:19:48.539Z,10.48
2022-10-18T09:22:53.945Z,12.43
2022-10-18T09:26:25.624Z,9.30
2022-10-18T09:29:47.838Z,8.80
2022-10-18T09:32:49.789Z,10.00
2022-10-18T09:35:56.795Z,11.18
2022-10-18T09:39:02.492Z,9.68
2022-10-18T09:42:07.519Z,10.43
2022-10-18T09:45:23.818Z,11.07
2022-10-18T09:48:25.911Z,9.85
2022-10-18T09:51:30.881Z,21.95
2022-10-18T09:54:44.173Z,10.55
2022-10-18T09:57:51.502Z,11.93
2022-10-18T10:00:55.441Z,9.70
2022-10-18T10:03:57.935Z,11.90
2022-10-18T10:07:00.986Z,13.35
2022-10-18T10:10:29.344Z,10.02
2022-10-18T10:13:32.275Z,8.82
2022-10-18T10:16:34.483Z,8.90
2022-10-18T10:19:54.938Z,8.95
2022-10-18T10:23:06.696Z,8.80
2022-10-18T10:26:27.627Z,8.82
2022-10-18T10:29:47.858Z,7.45
2022-10-18T10:32:51.280Z,9.17
2022-10-18T10:35:58.388Z,8.23
2022-10-18T10:39:13.833Z,10.70
2022-10-18T10:42:15.878Z,9.50
2022-10-18T10:45:17.926Z,11.25
2022-10-18T10:48:20.271Z,9.23
2022-10-18T10:51:32.536Z,8.20
2022-10-18T10:54:42.359Z,9.10
2022-10-18T10:57:48.213Z,10.32
2022-10-18T11:00:52.602Z,6.60
2022-10-18T11:03:59.110Z,7.53
2022-10-18T11:07:04.668Z,10.05
2022-10-18T11:10:06.749Z,10.70
2022-10-18T11:13:19.341Z,6.70
2022-10-18T11:16:21.272Z,10.48
2022-10-18T11:19:28.431Z,7.70
2022-10-18T11:22:35.249Z,9.40
2022-10-18T11:25:43.484Z,9.13
2022-10-18T11:28:54.614Z,8.85
2022-10-18T11:31:59.421Z,8.10
2022-10-18T11:35:14.855Z,10.10
2022-10-18T11:38:31.405Z,8.85
2022-10-18T11:41:36.239Z,8.30
2022-10-18T11:44:43.155Z,7.13
2022-10-18T11:48:03.887Z,7.00
2022-10-18T11:51:10.425Z,10.37
2022-10-18T11:54:24.305Z,7.65
2022-10-18T11:57:29.319Z,6.88
2022-10-18T12:00:31.562Z,10.95
2022-10-18T12:03:40.201Z,9.25
2022-10-18T12:06:43.137Z,5.57
2022-10-18T12:13:02.131Z,7.35
2022-10-18T12:16:05.207Z,8.40
2022-10-18T12:19:12.418Z,8.75
2022-10-18T12:22:22.756Z,10.43
2022-10-18T12:25:25.030Z,9.88
2022-10-18T12:28:33.346Z,6.93
2022-10-18T12:31:40.853Z,7.07
2022-10-18T12:34:48.981Z,7.00
2022-10-18T12:38:08.920Z,6.67
2022-10-18T12:41:18.730Z,10.52
2022-10-18T12:44:34.435Z,7.20
2022-10-18T12:47:36.844Z,10.50
2022-10-18T12:50:40.053Z,6.78
2022-10-18T12:53:45.144Z,7.60
2022-10-18T12:56:48.085Z,7.50
2022-10-18T12:59:50.393Z,14.07
2022-10-18T13:03:12.302Z,9.05
2022-10-18T13:06:14.282Z,8.70
2022-10-18T13:09:17.526Z,8.70
2022-10-18T13:12:19.586Z,7.05
2022-10-18T13:15:34.434Z,8.63
2022-10-18T13:18:45.543Z,10.48
2022-10-18T13:22:06.108Z,7.15
2022-10-18T13:25:10.859Z,4.83
2022-10-18T13:28:15.866Z,6.38
2022-10-18T13:31:27.070Z,6.35
2022-10-18T13:34:34.745Z,9.10
2022-10-18T13:37:37.332Z,7.00
2022-10-18T13:40:39.455Z,6.93
2022-10-18T13:43:50.244Z,8.80
2022-10-18T13:46:54.319Z,7.80
2022-10-18T13:49:59.454Z,9.07
2022-10-18T13:53:20.262Z,5.95
2022-10-18T13:56:33.305Z,10.27
2022-10-18T13:59:41.568Z,7.72
2022-10-18T14:03:00.176Z,5.65
2022-10-18T14:06:02.344Z,6.07
2022-10-18T14:09:32.885Z,7.45
2022-10-18T14:12:44.244Z,9.00
2022-10-18T14:15:48.486Z,8.70
2022-10-18T14:18:51.578Z,7.95
2022-10-18T14:22:06.911Z,7.88
2022-10-18T14:25:26.937Z,8.80
2022-10-18T14:28:48.028Z,6.80
2022-10-18T14:31:54.443Z,7.88
2022-10-18T14:35:27.338Z,12.38
2022-10-18T14:38:22.371Z,9.38
2022-10-18T14:41:27.106Z,11.00
2022-10-18T14:44:30.375Z,9.50
2022-10-18T14:47:36.209Z,12.65
2022-10-18T14:50:38.204Z,9.98
2022-10-18T14:53:40.558Z,13.88
2022-10-18T14:56:43.164Z,11.32
2022-10-18T14:59:46.804Z,10.90
2022-10-18T15:02:49.208Z,11.85
2022-10-18T15:06:01.589Z,12.75
2022-10-18T15:09:06.988Z,15.90
2022-10-18T15:12:12.164Z,11.43
2022-10-18T15:15:21.119Z,12.60
2022-10-18T15:18:24.598Z,11.18
2022-10-18T15:21:26.741Z,16.80
2022-10-18T15:24:31.477Z,13.55
2022-10-18T15:27:36.168Z,12.63
2022-10-18T15:30:39.423Z,12.93
2022-10-18T15:33:41.369Z,45.05
2022-10-18T15:40:10.192Z,26.00
2022-10-18T15:43:24.306Z,29.15
2022-10-18T15:46:30.830Z,32.23
2022-10-18T15:49:32.802Z,33.72
2022-10-18T15:52:39.332Z,26.55
2022-10-18T15:55:42.913Z,27.88
2022-10-18T15:58:45.806Z,28.70
2022-10-18T16:01:47.961Z,25.37
2022-10-18T16:04:49.972Z,26.70
2022-10-18T16:07:52.429Z,33.55
2022-10-18T16:10:54.385Z,34.05
2022-10-18T16:13:59.443Z,37.10
2022-10-18T16:17:04.090Z,44.93
2022-10-18T16:20:06.357Z,42.10
2022-10-18T16:23:16.069Z,41.90
2022-10-18T16:26:18.716Z,46.72
2022-10-18T16:29:25.581Z,119.20
2022-10-18T16:32:27.532Z,105.57
2022-10-18T16:35:29.936Z,82.50
2022-10-18T16:38:35.267Z,88.60
2022-10-18T16:41:37.361Z,90.22
2022-10-18T16:44:39.285Z,90.95
2022-10-18T16:47:41.260Z,91.77
2022-10-18T16:50:43.266Z,90.70
2022-10-18T16:53:45.368Z,93.35
2022-10-18T16:56:50.303Z,83.97
2022-10-18T16:59:52.360Z,87.00
2022-10-18T17:02:54.347Z,83.17
2022-10-18T17:05:56.859Z,84.35
2022-10-18T17:08:58.937Z,89.68
2022-10-18T17:12:00.890Z,67.90
2022-10-18T17:15:03.127Z,66.43
2022-10-18T17:18:06.019Z,66.43
2022-10-18T17:21:08.003Z,66.68
2022-10-18T17:24:10.240Z,72.65
2022-10-18T17:27:12.227Z,76.70
2022-10-18T17:30:15.124Z,64.30
2022-10-18T17:33:17.077Z,71.47
2022-10-18T17:36:19.053Z,62.42
2022-10-18T17:39:21.010Z,77.50
2022-10-18T17:42:23.028Z,74.43
2022-10-18T17:45:25.366Z,88.50
2022-10-18T17:48:29.105Z,83.37
2022-10-18T17:51:31.064Z,110.53
2022-10-18T17:54:33.004Z,159.00
2022-10-18T17:57:35.377Z,130.95
2022-10-18T18:00:37.545Z,148.27
2022-10-18T18:03:39.895Z,128.50
2022-10-18T18:06:41.875Z,94.80
2022-10-18T18:09:43.814Z,82.20
2022-10-18T18:12:46.775Z,85.03
2022-10-18T18:15:48.728Z,62.77
2022-10-18T18:18:51.636Z,56.15
2022-10-18T18:21:53.697Z,59.28
2022-10-18T18:24:55.633Z,77.90
2022-10-18T18:27:57.581Z,94.33
2022-10-18T18:30:59.536Z,105.45
2022-10-18T18:34:01.483Z,97.63
2022-10-18T18:37:03.485Z,105.10
2022-10-18T18:40:05.662Z,97.33
2022-10-18T18:43:22.874Z,105.60
2022-10-18T18:46:26.778Z,136.02
2022-10-18T18:49:28.856Z,115.45
2022-10-18T18:52:31.144Z,97.53
2022-10-18T18:55:34.558Z,83.47
2022-10-18T18:58:37.167Z,74.35
2022-10-18T19:01:39.181Z,86.57
2022-10-18T19:04:41.450Z,65.67
2022-10-18T19:07:43.377Z,69.00
2022-10-18T19:10:49.052Z,77.65
2022-10-18T19:13:51.024Z,66.33
2022-10-18T19:16:54.394Z,67.85
2022-10-18T19:19:58.860Z,76.25
2022-10-18T19:23:00.800Z,65.75
2022-10-18T19:26:12.230Z,66.53
2022-10-18T19:29:15.707Z,67.75
2022-10-18T19:32:19.013Z,73.70
2022-10-18T19:35:21.044Z,68.95
2022-10-18T19:38:22.976Z,72.37
2022-10-18T19:44:29.136Z,72.75
2022-10-18T19:47:31.034Z,70.90
2022-10-18T19:50:34.681Z,65.90
2022-10-18T19:53:36.678Z,58.45
2022-10-18T19:56:39.055Z,57.40
2022-10-18T20:02:47.880Z,58.08
2022-10-18T20:06:00.373Z,65.93
2022-10-18T20:09:02.374Z,64.78
2022-10-18T20:12:04.350Z,63.97
2022-10-18T20:15:08.811Z,68.28
2022-10-18T20:18:10.768Z,72.07
2022-10-18T20:21:14.345Z,73.38
2022-10-18T20:24:16.294Z,139.65
2022-10-18T20:27:18.236Z,173.20
2022-10-18T20:30:20.178Z,124.88
2022-10-18T20:33:22.142Z,123.60
2022-10-18T20:36:24.552Z,96.85
2022-10-18T20:39:26.536Z,81.07
2022-10-18T20:42:28.520Z,81.45
2022-10-18T20:45:30.463Z,87.72
2022-10-18T20:48:32.987Z,76.55
2022-10-18T20:51:35.363Z,56.17
2022-10-18T20:54:37.300Z,52.50
2022-10-18T20:57:39.545Z,51.15
2022-10-18T21:00:41.712Z,50.15
2022-10-18T21:03:44.738Z,40.13
2022-10-18T21:06:46.709Z,46.10
2022-10-18T21:09:48.780Z,46.58
2022-10-18T21:12:50.726Z,48.53
2022-10-18T21:15:56.425Z,43.10
2022-10-18T21:19:03.291Z,34.10
2022-10-18T21:22:05.248Z,30.15
2022-10-18T21:25:07.476Z,25.30
2022-10-18T21:28:09.412Z,34.60
2022-10-18T21:31:18.953Z,39.45
2022-10-18T21:34:20.995Z,44.05
2022-10-18T21:37:22.982Z,42.00
2022-10-18T21:40:25.159Z,39.10
2022-10-18T21:43:27.195Z,39.58
2022-10-18T21:46:29.153Z,37.38
2022-10-18T21:49:35.063Z,35.37
2022-10-18T21:52:38.139Z,30.63
2022-10-18T21:55:40.043Z,28.70
2022-10-18T21:58:42.340Z,33.03
2022-10-18T22:01:45.139Z,37.42
2022-10-18T22:04:47.132Z,37.28
2022-10-18T22:07:49.066Z,32.40
2022-10-18T22:10:50.999Z,31.00
2022-10-18T22:13:53.431Z,29.83
2022-10-18T22:16:55.339Z,27.92
2022-10-18T22:19:57.258Z,30.35
2022-10-18T22:22:59.169Z,26.53
2022-10-18T22:26:09.170Z,26.10
2022-10-18T22:29:13.190Z,24.65
2022-10-18T22:32:15.114Z,29.10
2022-10-18T22:35:17.039Z,26.60
2022-10-18T22:38:18.954Z,25.55
2022-10-18T22:41:20.961Z,18.60
2022-10-18T22:44:23.164Z,28.60
2022-10-18T22:47:25.102Z,28.67
2022-10-18T22:50:27.185Z,29.52
2022-10-18T22:53:29.412Z,29.70
2022-10-18T22:56:31.392Z,26.42
2022-10-18T22:59:33.873Z,22.55
2022-10-18T23:02:36.111Z,23.60
2022-10-18T23:05:39.103Z,17.13
2022-10-18T23:08:41.041Z,16.55
2022-10-18T23:11:43.004Z,16.42
2022-10-18T23:14:45.853Z,15.88
2022-10-18T23:17:49.982Z,19.95
2022-10-18T23:20:59.852Z,19.05
2022-10-18T23:24:01.848Z,22.43
2022-10-18T23:27:03.831Z,31.05
2022-10-18T23:30:06.120Z,31.20
2022-10-18T23:33:08.133Z,27.93
2022-10-18T23:36:10.159Z,23.52
2022-10-18T23:39:12.109Z,15.35
2022-10-18T23:42:14.342Z,22.60
2022-10-18T23:45:16.331Z,17.65
2022-10-18T23:48:18.267Z,17.25
2022-10-18T23:51:20.278Z,10.85
2022-10-18T23:54:22.221Z,13.57
2022-10-18T23:57:24.175Z,22.55
